Time;durP1;ratioP1;P1;durP2;ratioP2;P2;SDS_P1;SDS_P2;PMS_P1;PMS_P2;Temp;Humidity;BMP_temperature;BMP_pressure;BME280_temperature;BME280_humidity;BME280_pressure;Samples;Min_cycle;Max_cycle;Signal;HPM_P1;HPM_P2
2022/07/13 00:02:03;;;;;;;2.10;2.00;;;17.90;91.30;;;;;;6201297;28;20487;-66
2022/07/13 00:05:07;;;;;;;2.13;1.67;;;17.90;91.40;;;;;;6201302;28;20418;-65
2022/07/13 00:08:10;;;;;;;2.20;2.00;;;17.80;91.60;;;;;;6201133;28;20798;-66
2022/07/13 00:11:13;;;;;;;2.20;2.00;;;17.80;91.90;;;;;;6201235;28;20280;-66
2022/07/13 00:14:17;;;;;;;3.67;3.00;;;17.70;92.00;;;;;;6201110;28;20986;-69
2022/07/13 00:17:21;;;;;;;3.10;2.80;;;17.70;92.20;;;;;;6200895;28;20480;-70
2022/07/13 00:20:25;;;;;;;2.37;2.20;;;17.60;92.20;;;;;;6200926;28;20566;-71
2022/07/13 00:23:28;;;;;;;2.10;2.00;;;17.70;92.50;;;;;;6200902;28;20271;-71
2022/07/13 00:26:31;;;;;;;1.93;1.83;;;17.70;92.60;;;;;;6195618;28;20481;-70
2022/07/13 00:29:36;;;;;;;2.03;1.83;;;17.60;92.60;;;;;;6200989;28;20498;-71
2022/07/13 00:32:39;;;;;;;2.47;2.20;;;17.60;92.60;;;;;;6201662;28;20481;-66
2022/07/13 00:35:42;;;;;;;3.17;2.10;;;17.60;92.70;;;;;;6225085;28;20452;-66
2022/07/13 00:38:45;;;;;;;3.00;2.20;;;17.50;92.80;;;;;;6225756;28;20462;-69
2022/07/13 00:41:49;;;;;;;2.50;2.30;;;17.40;93.00;;;;;;6226650;28;20444;-69
2022/07/13 00:44:54;;;;;;;4.03;2.30;;;17.40;93.60;;;;;;6230241;28;20447;-69
2022/07/13 00:47:59;;;;;;;2.30;2.10;;;17.40;93.20;;;;;;6229944;28;20240;-69
2022/07/13 00:51:02;;;;;;;2.23;2.03;;;17.30;93.30;;;;;;6230794;28;20429;-70
2022/07/13 00:54:07;;;;;;;1.73;1.63;;;17.30;93.40;;;;;;6230140;28;20470;-70
2022/07/13 00:57:14;;;;;;;2.37;2.20;;;17.30;93.60;;;;;;6229915;28;20964;-69
2022/07/13 01:00:20;;;;;;;2.20;2.00;;;17.20;93.80;;;;;;6234035;28;20476;-69
2022/07/13 01:03:24;;;;;;;4.80;1.90;;;17.20;93.90;;;;;;6233308;28;20476;-69
2022/07/13 01:06:28;;;;;;;2.23;2.00;;;17.10;94.00;;;;;;6230145;28;20486;-69
2022/07/13 01:09:31;;;;;;;1.90;1.80;;;17.10;94.10;;;;;;6229590;28;20472;-69
2022/07/13 01:12:35;;;;;;;2.20;2.00;;;17.00;94.20;;;;;;6229723;28;20471;-68
2022/07/13 01:15:40;;;;;;;2.60;2.40;;;17.00;94.30;;;;;;6229473;28;20486;-68
2022/07/13 01:18:44;;;;;;;2.33;1.67;;;16.90;94.40;;;;;;6229537;28;20476;-69
2022/07/13 01:21:49;;;;;;;2.67;2.03;;;16.90;94.60;;;;;;6229135;28;20562;-69
2022/07/13 01:24:55;;;;;;;2.57;2.33;;;16.90;94.70;;;;;;6229615;28;20468;-69
2022/07/13 01:27:58;;;;;;;2.57;1.83;;;16.90;94.90;;;;;;6228634;28;20490;-69
2022/07/13 01:31:01;;;;;;;1.83;1.73;;;16.90;94.90;;;;;;6229231;28;20476;-69
2022/07/13 01:34:06;;;;;;;2.40;2.20;;;16.90;94.90;;;;;;6228649;28;20957;-69
2022/07/13 01:37:09;;;;;;;2.17;1.70;;;16.90;95.10;;;;;;6228704;28;20964;-69
2022/07/13 01:40:15;;;;;;;2.50;2.40;;;16.80;95.20;;;;;;6228684;28;20472;-69
2022/07/13 01:43:23;;;;;;;2.47;2.27;;;16.80;95.30;;;;;;6228482;28;20472;-69
2022/07/13 01:46:27;;;;;;;3.40;2.50;;;16.80;95.50;;;;;;6228979;28;20476;-69
2022/07/13 01:49:30;;;;;;;2.07;1.93;;;16.70;95.60;;;;;;6228598;28;20482;-69
2022/07/13 01:52:35;;;;;;;2.50;2.30;;;16.60;95.60;;;;;;6227893;28;20476;-69
2022/07/13 01:55:40;;;;;;;2.37;1.87;;;16.60;95.80;;;;;;6228076;28;20480;-69
2022/07/13 01:58:43;;;;;;;2.33;2.23;;;16.60;95.90;;;;;;6228063;28;20488;-68
2022/07/13 02:01:46;;;;;;;2.77;2.57;;;16.60;96.00;;;;;;6227934;28;20821;-70
2022/07/13 02:04:49;;;;;;;2.90;2.67;;;16.60;95.90;;;;;;6228229;28;20551;-68
2022/07/13 02:07:53;;;;;;;2.50;2.30;;;16.60;95.90;;;;;;6229896;28;20468;-68
2022/07/13 02:10:58;;;;;;;2.20;2.00;;;16.60;96.00;;;;;;6231129;28;20464;-69
2022/07/13 02:14:01;;;;;;;2.30;2.20;;;16.60;96.10;;;;;;6229155;28;20482;-69
2022/07/13 02:17:04;;;;;;;2.10;2.00;;;16.60;96.20;;;;;;6228227;28;20482;-68
2022/07/13 02:20:08;;;;;;;3.27;2.43;;;16.60;96.20;;;;;;6227582;28;20555;-69
2022/07/13 02:23:11;;;;;;;2.53;2.00;;;16.40;96.10;;;;;;6227912;28;21064;-68
2022/07/13 02:26:16;;;;;;;2.40;2.20;;;16.40;96.60;;;;;;6227384;28;20472;-69
2022/07/13 02:29:19;;;;;;;4.93;2.67;;;16.40;96.70;;;;;;6227552;28;20484;-69
2022/07/13 02:32:22;;;;;;;3.00;2.70;;;16.30;96.70;;;;;;6228599;28;20490;-69
2022/07/13 02:35:25;;;;;;;2.33;2.13;;;16.30;96.90;;;;;;6218903;28;20476;-69
2022/07/13 02:38:28;;;;;;;2.60;2.40;;;16.30;97.00;;;;;;6227595;28;20498;-68
2022/07/13 02:41:33;;;;;;;2.43;2.23;;;16.20;97.20;;;;;;6227125;28;20464;-69
2022/07/13 02:44:36;;;;;;;3.23;2.13;;;16.20;97.20;;;;;;6227401;28;20474;-69
2022/07/13 02:47:39;;;;;;;2.23;2.13;;;16.20;97.30;;;;;;6227049;28;20464;-69
2022/07/13 02:50:42;;;;;;;3.03;2.33;;;16.20;97.70;;;;;;6227172;28;20484;-69
2022/07/13 02:53:46;;;;;;;2.23;2.13;;;16.20;97.40;;;;;;6227976;28;20471;-69
2022/07/13 02:56:50;;;;;;;2.27;2.17;;;16.20;97.30;;;;;;6229062;28;20464;-69
2022/07/13 02:59:53;;;;;;;2.43;2.23;;;16.10;97.30;;;;;;6228061;28;20483;-69
2022/07/13 03:02:56;;;;;;;2.53;2.33;;;16.10;97.40;;;;;;6228664;28;20523;-69
2022/07/13 03:06:01;;;;;;;2.37;2.10;;;16.10;97.60;;;;;;6227196;28;20535;-69
2022/07/13 03:09:04;;;;;;;2.63;2.43;;;16.00;97.60;;;;;;6226851;28;20944;-69
2022/07/13 03:12:08;;;;;;;3.60;2.43;;;16.00;97.70;;;;;;6228571;28;20466;-69
2022/07/13 03:15:12;;;;;;;2.80;2.60;;;16.00;97.80;;;;;;6228341;28;20468;-69
2022/07/13 03:18:15;;;;;;;2.83;2.40;;;16.00;97.90;;;;;;6227894;28;20472;-68
2022/07/13 03:21:19;;;;;;;2.40;2.20;;;16.00;98.00;;;;;;6227228;28;20483;-69
2022/07/13 03:24:22;;;;;;;2.40;2.30;;;16.00;98.00;;;;;;6227176;28;20464;-69
2022/07/13 03:27:26;;;;;;;2.63;2.43;;;15.90;98.10;;;;;;6226370;28;20826;-69
2022/07/13 03:30:30;;;;;;;4.40;2.73;;;15.90;98.10;;;;;;6226458;28;20468;-69
2022/07/13 03:33:33;;;;;;;2.10;2.00;;;16.00;98.10;;;;;;6226319;28;20479;-69
2022/07/13 03:36:36;;;;;;;3.10;2.57;;;16.00;98.10;;;;;;6221659;28;20476;-69
2022/07/13 03:39:39;;;;;;;2.40;2.30;;;15.90;98.20;;;;;;6225803;28;20476;-69
2022/07/13 03:42:43;;;;;;;2.20;2.10;;;15.90;98.20;;;;;;6226252;28;20820;-69
2022/07/13 03:45:47;;;;;;;2.60;2.40;;;15.90;98.30;;;;;;6225764;28;20475;-69
2022/07/13 03:48:50;;;;;;;2.87;2.67;;;16.00;98.30;;;;;;6225679;28;20555;-69
2022/07/13 03:51:53;;;;;;;2.40;2.20;;;15.90;98.40;;;;;;6226120;28;20471;-69
2022/07/13 03:54:56;;;;;;;2.63;2.43;;;15.90;98.40;;;;;;6225895;28;20476;-69
2022/07/13 03:58:01;;;;;;;2.80;2.60;;;16.00;98.40;;;;;;6226022;28;20472;-68
2022/07/13 04:01:05;;;;;;;4.70;2.63;;;16.00;98.40;;;;;;6225849;28;20797;-68
2022/07/13 04:04:09;;;;;;;2.27;2.03;;;16.00;98.30;;;;;;6225514;28;20476;-69
2022/07/13 04:07:12;;;;;;;3.63;2.30;;;16.10;98.30;;;;;;6225518;28;20949;-69
2022/07/13 04:10:18;;;;;;;2.13;2.03;;;16.10;98.30;;;;;;6225465;28;20487;-69
2022/07/13 04:13:22;;;;;;;2.97;2.70;;;16.10;98.20;;;;;;6225405;28;20881;-69
2022/07/13 04:16:26;;;;;;;2.43;2.23;;;16.20;98.50;;;;;;6225037;28;20472;-69
2022/07/13 04:19:29;;;;;;;2.93;2.63;;;16.20;98.20;;;;;;6225753;28;20565;-69
2022/07/13 04:22:32;;;;;;;2.53;2.33;;;16.30;98.10;;;;;;6225760;28;20467;-68
2022/07/13 04:25:36;;;;;;;2.50;2.33;;;16.40;98.10;;;;;;6225373;28;20476;-68
2022/07/13 04:28:40;;;;;;;2.60;2.40;;;16.50;97.90;;;;;;6225375;28;20482;-68
2022/07/13 04:31:43;;;;;;;2.10;1.90;;;16.50;97.70;;;;;;6225330;28;20490;-68
2022/07/13 04:34:47;;;;;;;2.70;2.50;;;16.70;97.90;;;;;;6225355;28;20949;-69
2022/07/13 04:37:50;;;;;;;4.93;2.40;;;16.80;97.40;;;;;;6225585;28;20478;-69
2022/07/13 04:40:53;;;;;;;3.43;2.80;;;16.90;97.40;;;;;;6225005;28;20992;-69
2022/07/13 04:43:57;;;;;;;2.80;2.60;;;17.00;97.30;;;;;;6225139;28;20798;-69
2022/07/13 04:47:01;;;;;;;3.30;3.00;;;17.10;97.30;;;;;;6225467;28;20468;-69
2022/07/13 04:50:05;;;;;;;3.33;2.70;;;17.20;97.20;;;;;;6228717;28;20992;-69
2022/07/13 04:53:08;;;;;;;4.83;2.77;;;17.40;97.10;;;;;;6226944;28;20495;-69
2022/07/13 04:56:12;;;;;;;2.70;2.37;;;17.50;97.10;;;;;;6225702;28;20471;-69
2022/07/13 04:59:16;;;;;;;2.90;2.70;;;17.60;96.90;;;;;;6225105;28;20484;-69
2022/07/13 05:02:19;;;;;;;4.37;3.10;;;17.90;96.50;;;;;;6225871;28;20237;-69
2022/07/13 05:05:22;;;;;;;3.03;2.53;;;18.00;96.00;;;;;;6225050;28;20233;-69
2022/07/13 05:08:25;;;;;;;2.60;2.40;;;18.20;95.70;;;;;;6225002;28;20244;-68
2022/07/13 05:11:29;;;;;;;3.10;2.50;;;18.40;95.40;;;;;;6224790;28;20229;-69
2022/07/13 05:14:35;;;;;;;2.43;2.23;;;18.50;95.20;;;;;;6224642;28;20659;-69
2022/07/13 05:17:38;;;;;;;3.80;2.73;;;18.60;95.00;;;;;;6224656;28;20230;-68
2022/07/13 05:20:41;;;;;;;3.30;3.00;;;18.80;95.00;;;;;;6224498;28;20233;-68
2022/07/13 05:23:44;;;;;;;3.60;2.93;;;19.00;94.60;;;;;;6225000;28;20236;-69
2022/07/13 05:26:47;;;;;;;3.23;2.97;;;19.10;94.20;;;;;;6226325;28;20635;-69
2022/07/13 05:29:52;;;;;;;5.47;3.20;;;19.30;93.70;;;;;;6228928;28;20229;-68
2022/07/13 05:32:55;;;;;;;5.70;3.20;;;19.50;93.50;;;;;;6230755;28;20201;-70
2022/07/13 05:36:03;;;;;;;6.20;2.83;;;19.60;93.20;;;;;;6229376;28;20263;-69
2022/07/13 05:39:06;;;;;;;4.60;3.10;;;19.70;92.80;;;;;;6228889;28;20370;-68
2022/07/13 05:42:09;;;;;;;4.10;3.80;;;19.70;92.80;;;;;;6228995;28;20228;-69
2022/07/13 05:45:14;;;;;;;5.47;3.10;;;19.70;93.10;;;;;;6219728;28;20244;-69
2022/07/13 05:48:17;;;;;;;5.10;3.20;;;19.70;93.20;;;;;;6228751;28;20248;-68
2022/07/13 05:51:20;;;;;;;5.00;4.03;;;19.70;92.50;;;;;;6228101;28;20244;-69
2022/07/13 05:54:37;;;;;;;5.03;3.63;;;19.70;92.40;;;;;;6228961;28;20253;-69
2022/07/13 05:57:46;;;;;;;17.27;7.97;;;19.70;92.60;;;;;;6228323;28;20312;-69
2022/07/13 06:00:50;;;;;;;5.30;3.57;;;19.70;93.00;;;;;;6229622;28;20225;-68
2022/07/13 06:03:59;;;;;;;3.93;2.97;;;19.60;92.70;;;;;;6230235;28;20308;-69
2022/07/13 06:07:02;;;;;;;3.50;3.20;;;19.60;93.10;;;;;;6228661;28;20225;-69
2022/07/13 06:10:07;;;;;;;3.43;3.17;;;19.90;92.60;;;;;;6227715;28;20240;-69
2022/07/13 06:13:10;;;;;;;5.60;3.90;;;20.40;91.90;;;;;;6228047;28;20229;-69
2022/07/13 06:16:14;;;;;;;4.03;2.90;;;21.20;91.30;;;;;;6228034;28;20229;-69
2022/07/13 06:19:17;;;;;;;6.43;3.50;;;22.20;89.70;;;;;;6228266;28;20371;-69
2022/07/13 06:22:21;;;;;;;6.87;3.10;;;22.80;86.90;;;;;;6229090;28;20248;-69
2022/07/13 06:25:24;;;;;;;4.53;3.60;;;23.70;85.40;;;;;;6228863;28;20810;-69
2022/07/13 06:28:27;;;;;;;6.77;3.53;;;24.10;82.30;;;;;;6227775;28;20567;-69
2022/07/13 06:31:31;;;;;;;6.57;3.73;;;25.00;79.40;;;;;;6227610;28;20617;-68
2022/07/13 06:34:35;;;;;;;6.33;3.73;;;25.60;76.10;;;;;;6227616;28;20229;-69
2022/07/13 06:37:38;;;;;;;4.77;3.57;;;26.00;74.00;;;;;;6227589;28;20662;-69
2022/07/13 06:40:49;;;;;;;7.17;3.47;;;26.60;72.30;;;;;;6227170;28;20233;-69
2022/07/13 06:43:52;;;;;;;5.43;3.50;;;27.20;69.00;;;;;;6227692;28;20225;-69
2022/07/13 06:46:59;;;;;;;4.80;3.70;;;27.90;65.50;;;;;;6228350;28;20220;-69
2022/07/13 06:50:02;;;;;;;5.70;3.93;;;28.30;64.00;;;;;;6224551;28;20709;-69
2022/07/13 06:53:05;;;;;;;5.40;3.93;;;29.10;61.90;;;;;;6227000;28;20224;-69
2022/07/13 06:56:09;;;;;;;4.43;3.73;;;29.80;59.50;;;;;;6226719;28;20234;-70
2022/07/13 06:59:12;;;;;;;10.50;3.60;;;30.20;57.40;;;;;;6226619;28;20244;-68
2022/07/13 07:02:16;;;;;;;4.93;3.70;;;30.70;55.70;;;;;;6227117;28;20220;-70
2022/07/13 07:05:20;;;;;;;4.80;3.65;;;31.10;53.80;;;;;;6227088;28;20239;-69
2022/07/13 07:08:23;;;;;;;5.55;3.53;;;31.50;53.10;;;;;;6226571;28;20564;-69
2022/07/13 07:11:26;;;;;;;4.68;4.00;;;32.30;51.60;;;;;;6226923;28;20228;-69
2022/07/13 07:14:32;;;;;;;10.18;3.80;;;33.10;49.10;;;;;;6226728;28;20234;-69
2022/07/13 07:17:45;;;;;;;8.10;3.97;;;33.90;47.70;;;;;;6226364;28;20269;-69
2022/07/13 07:20:49;;;;;;;9.80;4.28;;;34.30;46.20;;;;;;6226785;28;20250;-70
2022/07/13 07:23:52;;;;;;;6.72;3.83;;;34.30;45.80;;;;;;6226224;28;20215;-69
2022/07/13 07:26:55;;;;;;;5.47;3.60;;;35.10;44.70;;;;;;6221215;28;20204;-70
2022/07/13 07:29:58;;;;;;;6.05;3.17;;;35.60;43.80;;;;;;6201565;28;20228;-69
2022/07/13 07:33:04;;;;;;;6.43;4.10;;;36.20;43.30;;;;;;6201760;28;20217;-70
2022/07/13 07:36:07;;;;;;;6.25;3.88;;;36.70;43.10;;;;;;6201349;28;20542;-69
2022/07/13 07:39:12;;;;;;;5.97;4.68;;;36.60;42.90;;;;;;6201224;28;20256;-69
2022/07/13 07:42:15;;;;;;;6.10;3.22;;;37.20;42.10;;;;;;6201764;28;20300;-69
2022/07/13 07:45:19;;;;;;;5.13;3.42;;;37.10;41.70;;;;;;6201493;28;20243;-68
2022/07/13 07:48:23;;;;;;;5.57;3.40;;;37.60;40.90;;;;;;6197082;28;20247;-67
2022/07/13 07:51:26;;;;;;;6.47;3.42;;;37.80;40.70;;;;;;6192653;28;20236;-67
2022/07/13 07:54:49;;;;;;;7.47;4.20;;;37.20;40.30;;;;;;6177027;28;20310;-67
2022/07/13 07:57:58;;;;;;;4.07;3.08;;;37.50;40.30;;;;;;6193662;28;20342;-67
2022/07/13 08:01:01;;;;;;;2.72;2.53;;;37.70;38.50;;;;;;6200307;28;20233;-67
2022/07/13 08:04:06;;;;;;;4.65;2.47;;;37.60;37.00;;;;;;6200970;28;20221;-67
2022/07/13 08:07:09;;;;;;;5.47;2.70;;;37.20;36.70;;;;;;6200532;28;20686;-68
2022/07/13 08:10:12;;;;;;;3.80;2.55;;;36.10;38.00;;;;;;6199575;28;20237;-67
2022/07/13 08:13:32;;;;;;;4.47;2.65;;;35.00;39.80;;;;;;6200091;28;20385;-67
2022/07/13 08:16:35;;;;;;;4.50;2.10;;;33.90;40.80;;;;;;6200875;28;20228;-68
2022/07/13 08:19:40;;;;;;;6.70;2.75;;;33.40;41.00;;;;;;6200635;28;20351;-67
2022/07/13 08:22:44;;;;;;;4.47;2.60;;;32.90;43.60;;;;;;6200872;28;20255;-68
2022/07/13 08:25:47;;;;;;;5.18;2.47;;;32.30;43.30;;;;;;6200871;28;20232;-67
2022/07/13 08:28:51;;;;;;;3.15;1.90;;;31.70;43.60;;;;;;6200485;28;20313;-68
2022/07/13 08:31:54;;;;;;;2.78;2.58;;;31.40;43.20;;;;;;6200806;28;20233;-68
2022/07/13 08:38:38;;;;;;;1.95;1.85;;;30.70;44.00;;;;;;6200653;28;20237;-68
2022/07/13 08:41:41;;;;;;;4.78;2.40;;;30.20;43.10;;;;;;6201668;28;20236;-69
2022/07/13 08:44:44;;;;;;;2.30;1.55;;;29.80;44.50;;;;;;6201694;28;20229;-68
2022/07/13 08:47:48;;;;;;;3.10;2.10;;;29.70;44.90;;;;;;6200638;28;20562;-68
2022/07/13 08:50:53;;;;;;;2.50;1.87;;;29.60;45.70;;;;;;6200360;28;20378;-67
2022/07/13 08:53:57;;;;;;;2.70;1.73;;;29.30;44.60;;;;;;6200360;28;20236;-68
2022/07/13 08:57:00;;;;;;;2.70;2.00;;;29.10;45.30;;;;;;6191566;28;20211;-68
2022/07/13 09:00:06;;;;;;;2.90;1.67;;;29.00;45.80;;;;;;6199967;28;20248;-68
2022/07/13 09:03:10;;;;;;;2.67;2.00;;;28.90;44.90;;;;;;6216091;28;20331;-68
2022/07/13 09:06:43;;;;;;;1.80;1.50;;;28.50;45.10;;;;;;6253526;28;20223;-68
2022/07/13 09:09:46;;;;;;;3.07;1.73;;;28.50;46.00;;;;;;6253557;28;20246;-67
2022/07/13 09:13:09;;;;;;;8.60;2.57;;;28.50;45.70;;;;;;6253929;28;20555;-68
2022/07/13 09:16:17;;;;;;;2.13;1.40;;;28.30;46.30;;;;;;6230459;28;20224;-68
2022/07/13 09:19:26;;;;;;;3.47;1.90;;;28.40;44.60;;;;;;6228503;28;20228;-68
2022/07/13 09:22:30;;;;;;;4.37;1.80;;;28.60;44.70;;;;;;6228964;28;20682;-67
2022/07/13 09:25:37;;;;;;;4.30;2.07;;;28.70;44.30;;;;;;6229051;28;20228;-68
2022/07/13 09:28:44;;;;;;;3.60;1.80;;;28.80;45.10;;;;;;6228279;28;20231;-67
2022/07/13 09:31:52;;;;;;;3.60;1.87;;;28.70;45.30;;;;;;6228420;28;20564;-68
2022/07/13 09:34:58;;;;;;;2.13;1.63;;;28.50;45.70;;;;;;6228635;28;20224;-68
2022/07/13 09:38:02;;;;;;;5.00;2.70;;;28.60;46.30;;;;;;6228606;28;20228;-66
2022/07/13 09:41:20;;;;;;;5.27;2.27;;;28.70;46.80;;;;;;6228808;28;20240;-67
2022/07/13 09:47:48;;;;;;;8.73;3.00;;;28.70;47.00;;;;;;6228595;28;20320;-68
2022/07/13 09:50:53;;;;;;;1.73;1.63;;;28.70;46.60;;;;;;6204946;28;20220;-67
2022/07/13 09:54:01;;;;;;;3.67;1.83;;;28.80;46.30;;;;;;6208214;28;20607;-67
2022/07/13 09:57:06;;;;;;;2.00;1.57;;;28.80;46.20;;;;;;6206698;28;20209;-67
2022/07/13 10:00:12;;;;;;;4.30;1.93;;;28.50;47.00;;;;;;6202058;28;20233;-68
2022/07/13 10:03:15;;;;;;;4.13;2.50;;;28.20;49.70;;;;;;6205633;28;20229;-67
2022/07/13 10:06:20;;;;;;;2.13;1.93;;;28.20;49.20;;;;;;6205597;28;20229;-67
2022/07/13 10:09:25;;;;;;;5.30;2.37;;;28.20;49.80;;;;;;6205376;28;20687;-67
2022/07/13 10:12:29;;;;;;;2.47;2.20;;;28.40;49.60;;;;;;6204920;28;20221;-67
2022/07/13 10:15:32;;;;;;;3.53;2.03;;;28.50;48.50;;;;;;6203910;28;20240;-69
2022/07/13 10:18:39;;;;;;;1.90;1.80;;;28.70;48.70;;;;;;6203465;28;20251;-67
2022/07/13 10:22:04;;;;;;;12.90;3.07;;;28.90;48.20;;;;;;6203392;28;20229;-67
2022/07/13 10:25:09;;;;;;;4.80;2.30;;;29.10;48.60;;;;;;6203194;28;20221;-69
2022/07/13 10:28:13;;;;;;;5.50;2.17;;;29.30;48.00;;;;;;6203721;28;20239;-68
2022/07/13 10:31:29;;;;;;;3.20;2.10;;;29.30;47.80;;;;;;6203163;28;20263;-68
2022/07/13 10:34:53;;;;;;;4.47;2.10;;;29.40;46.20;;;;;;6200600;28;20239;-68
2022/07/13 10:38:18;;;;;;;1.70;1.60;;;29.30;46.30;;;;;;6206216;28;20234;-68
2022/07/13 10:41:23;;;;;;;2.70;1.67;;;29.40;45.70;;;;;;6208494;28;20225;-68
2022/07/13 10:44:37;;;;;;;4.60;1.80;;;29.60;46.60;;;;;;6205010;28;20570;-67
2022/07/13 10:47:45;;;;;;;1.90;1.63;;;29.80;45.90;;;;;;6202676;28;20239;-69
2022/07/13 10:50:52;;;;;;;2.53;2.33;;;29.80;45.50;;;;;;6202544;28;20284;-68
2022/07/13 10:54:09;;;;;;;2.33;1.90;;;29.60;46.00;;;;;;6202886;28;20209;-68
2022/07/13 10:57:15;;;;;;;2.92;1.60;;;29.80;45.60;;;;;;6202744;28;20237;-68
2022/07/13 11:00:19;;;;;;;2.13;1.93;;;29.80;45.00;;;;;;6202375;28;20233;-68
2022/07/13 11:03:29;;;;;;;1.70;1.60;;;29.80;44.40;;;;;;6209798;28;20249;-68
2022/07/13 11:06:32;;;;;;;2.00;1.80;;;29.90;44.00;;;;;;6226699;28;20244;-68
2022/07/13 11:09:35;;;;;;;2.33;1.40;;;29.90;43.20;;;;;;6227155;28;20232;-68
2022/07/13 11:12:58;;;;;;;2.28;1.77;;;29.90;44.40;;;;;;6226266;28;20239;-68
2022/07/13 11:16:01;;;;;;;4.73;2.00;;;30.00;44.30;;;;;;6226403;28;20232;-67
2022/07/13 11:19:04;;;;;;;2.40;1.87;;;30.10;43.10;;;;;;6226121;28;20240;-67
2022/07/13 11:22:10;;;;;;;2.27;2.00;;;29.90;42.20;;;;;;6226304;28;20229;-67
2022/07/13 11:25:23;;;;;;;2.35;1.73;;;29.90;42.90;;;;;;6200416;28;20697;-67
2022/07/13 11:28:37;;;;;;;3.57;2.00;;;30.00;43.30;;;;;;6199727;28;20236;-68
2022/07/13 11:31:41;;;;;;;3.22;1.75;;;30.00;43.50;;;;;;6200971;28;20217;-68
2022/07/13 11:34:46;;;;;;;2.85;2.30;;;30.10;43.00;;;;;;6198788;28;20264;-68
2022/07/13 11:37:50;;;;;;;2.65;2.15;;;30.20;43.10;;;;;;6197734;28;20236;-68
2022/07/13 11:40:53;;;;;;;2.65;1.88;;;30.10;42.60;;;;;;6185949;28;20222;-67
2022/07/13 11:43:58;;;;;;;2.70;2.00;;;30.10;43.30;;;;;;6197523;28;20247;-67
2022/07/13 11:47:04;;;;;;;2.17;2.00;;;30.30;43.10;;;;;;6190260;28;20740;-67
2022/07/13 11:50:08;;;;;;;3.20;1.85;;;30.40;42.30;;;;;;6177012;28;20683;-68
2022/07/13 11:53:21;;;;;;;3.03;1.65;;;30.40;42.40;;;;;;6176784;28;20252;-68
2022/07/13 11:56:24;;;;;;;3.90;2.17;;;30.60;42.70;;;;;;6194377;28;20229;-67
2022/07/13 11:59:39;;;;;;;3.72;2.10;;;30.60;42.40;;;;;;6200634;28;20249;-68
2022/07/13 12:02:42;;;;;;;2.20;1.80;;;30.70;42.00;;;;;;6201165;28;20583;-67
2022/07/13 12:05:45;;;;;;;2.78;1.90;;;30.60;41.40;;;;;;6200851;28;20299;-67
2022/07/13 12:08:50;;;;;;;2.65;1.83;;;30.50;40.90;;;;;;6225306;28;20247;-69
2022/07/13 12:11:54;;;;;;;2.00;1.83;;;30.50;41.30;;;;;;6220071;28;20811;-68
2022/07/13 12:14:59;;;;;;;5.40;2.13;;;30.50;41.40;;;;;;6200912;28;20247;-69
2022/07/13 12:18:05;;;;;;;2.35;1.70;;;30.50;40.90;;;;;;6201193;28;20216;-68
2022/07/13 12:21:08;;;;;;;2.10;1.80;;;30.60;41.00;;;;;;6201335;28;20236;-69
2022/07/13 12:24:18;;;;;;;2.40;1.80;;;30.60;40.60;;;;;;6200512;28;20225;-68
2022/07/13 12:27:25;;;;;;;2.90;2.00;;;30.60;41.00;;;;;;6200956;28;20229;-68
2022/07/13 12:30:32;;;;;;;2.83;2.20;;;30.50;42.20;;;;;;6218975;28;20339;-69
2022/07/13 12:33:42;;;;;;;1.80;1.70;;;30.60;42.70;;;;;;6227241;28;20678;-69
2022/07/13 12:36:49;;;;;;;2.95;2.13;;;30.70;41.80;;;;;;6235009;28;20567;-69
2022/07/13 12:39:52;;;;;;;2.20;2.00;;;30.70;42.50;;;;;;6231361;28;20232;-68
2022/07/13 12:42:55;;;;;;;3.83;1.98;;;30.80;41.70;;;;;;6231232;28;20227;-68
2022/07/13 12:46:01;;;;;;;3.00;1.73;;;30.80;41.30;;;;;;6230189;28;20601;-67
2022/07/13 12:49:05;;;;;;;1.80;1.70;;;30.80;41.10;;;;;;6230385;28;20656;-67
2022/07/13 12:52:09;;;;;;;2.10;1.90;;;30.90;40.70;;;;;;6228402;28;20663;-67
2022/07/13 12:55:13;;;;;;;2.30;2.10;;;30.90;41.60;;;;;;6229834;28;20242;-69
2022/07/13 12:58:16;;;;;;;2.08;1.85;;;30.90;40.90;;;;;;6229103;28;20252;-68
2022/07/13 13:01:31;;;;;;;2.20;1.80;;;31.00;41.40;;;;;;6229798;28;20235;-68
2022/07/13 13:04:34;;;;;;;1.65;1.55;;;31.10;41.80;;;;;;6229794;28;20244;-67
2022/07/13 13:07:39;;;;;;;3.45;2.85;;;31.00;40.80;;;;;;6229473;28;20232;-67
2022/07/13 13:10:42;;;;;;;2.25;1.88;;;31.00;40.80;;;;;;6229301;28;20247;-67
2022/07/13 13:13:45;;;;;;;4.47;3.42;;;31.00;39.60;;;;;;6228968;28;20246;-68
2022/07/13 13:16:50;;;;;;;2.35;1.70;;;31.00;40.10;;;;;;6228990;28;20228;-67
2022/07/13 13:19:53;;;;;;;2.63;1.63;;;31.10;39.40;;;;;;6229198;28;20236;-68
2022/07/13 13:23:13;;;;;;;2.60;2.00;;;31.10;39.60;;;;;;6229145;28;20317;-66
2022/07/13 13:26:16;;;;;;;2.15;1.30;;;31.20;38.90;;;;;;6229177;28;20232;-66
2022/07/13 13:32:54;;;;;;;1.60;1.42;;;31.10;38.80;;;;;;6205871;28;20217;-69
2022/07/13 13:35:58;;;;;;;1.95;1.38;;;31.00;38.60;;;;;;6203781;28;20225;-68
2022/07/13 13:39:01;;;;;;;3.03;2.20;;;31.00;38.90;;;;;;6204703;28;20667;-67
2022/07/13 13:42:05;;;;;;;3.72;1.70;;;31.10;38.30;;;;;;6204518;28;20216;-67
2022/07/13 13:45:10;;;;;;;2.42;2.20;;;30.90;38.70;;;;;;6203096;28;20339;-68
2022/07/13 13:48:15;;;;;;;1.60;1.50;;;30.90;39.30;;;;;;6202584;28;20229;-68
2022/07/13 13:51:18;;;;;;;2.17;1.98;;;30.80;38.10;;;;;;6199752;28;20233;-69
2022/07/13 13:54:41;;;;;;;3.40;2.22;;;30.90;38.70;;;;;;6203048;28;20248;-67
2022/07/13 13:57:45;;;;;;;1.65;1.45;;;30.90;37.90;;;;;;6203909;28;20690;-67
2022/07/13 14:00:48;;;;;;;1.80;1.50;;;30.80;39.10;;;;;;6203838;28;20563;-69
2022/07/13 14:03:53;;;;;;;1.60;1.50;;;30.80;39.10;;;;;;6204061;28;20229;-68
2022/07/13 14:06:56;;;;;;;1.65;1.55;;;30.80;38.60;;;;;;6203667;28;20552;-69
2022/07/13 14:09:59;;;;;;;1.65;1.35;;;30.80;38.20;;;;;;6202581;28;20239;-70
2022/07/13 14:13:03;;;;;;;1.65;1.40;;;30.80;39.00;;;;;;6202680;28;20221;-68
2022/07/13 14:16:06;;;;;;;2.22;1.98;;;30.90;38.80;;;;;;6198207;28;20229;-70
2022/07/13 14:19:11;;;;;;;2.25;1.60;;;30.90;39.00;;;;;;6201830;28;20233;-68
2022/07/13 14:22:14;;;;;;;1.73;1.33;;;30.90;38.70;;;;;;6203055;28;20225;-68
2022/07/13 14:25:17;;;;;;;1.60;1.50;;;30.90;37.60;;;;;;6204307;28;20575;-69
2022/07/13 14:28:21;;;;;;;1.90;1.70;;;31.00;37.20;;;;;;6204072;28;20391;-68
2022/07/13 14:31:24;;;;;;;1.77;1.38;;;31.00;36.60;;;;;;6203318;28;20304;-68
2022/07/13 14:34:29;;;;;;;1.48;1.38;;;31.00;36.70;;;;;;6203941;28;20217;-68
2022/07/13 14:37:32;;;;;;;1.27;1.17;;;31.10;36.50;;;;;;6204560;28;20225;-67
2022/07/13 14:40:35;;;;;;;1.25;1.15;;;31.10;35.20;;;;;;6203372;28;20564;-67
2022/07/13 14:43:38;;;;;;;5.45;1.33;;;31.00;34.00;;;;;;6202783;28;20233;-67
2022/07/13 14:46:42;;;;;;;3.03;1.50;;;31.00;34.10;;;;;;6202481;28;20221;-67
2022/07/13 14:49:53;;;;;;;1.20;1.10;;;31.00;32.90;;;;;;6202859;28;20247;-67
2022/07/13 14:53:06;;;;;;;2.35;1.25;;;31.00;33.00;;;;;;6202928;28;20257;-67
2022/07/13 14:56:10;;;;;;;3.03;1.10;;;31.10;32.40;;;;;;6202216;28;20268;-69
2022/07/13 14:59:13;;;;;;;1.42;1.33;;;31.10;32.50;;;;;;6201872;28;20275;-67
2022/07/13 15:02:16;;;;;;;1.30;1.05;;;31.20;32.10;;;;;;6202003;28;20248;-69
2022/07/13 15:05:21;;;;;;;1.10;1.00;;;31.10;31.50;;;;;;6201117;28;20313;-68
2022/07/13 15:08:24;;;;;;;1.27;0.90;;;31.10;31.50;;;;;;6198100;28;20225;-66
2022/07/13 15:11:27;;;;;;;1.92;1.10;;;31.20;30.90;;;;;;6199980;28;20252;-68
2022/07/13 15:14:31;;;;;;;1.23;0.90;;;31.10;32.20;;;;;;6199458;28;20233;-66
2022/07/13 15:17:34;;;;;;;1.15;0.93;;;31.20;32.20;;;;;;6199286;28;20682;-65
2022/07/13 15:20:58;;;;;;;1.00;0.80;;;31.20;31.40;;;;;;6212432;28;20243;-65
2022/07/13 15:24:03;;;;;;;1.20;1.00;;;31.30;31.50;;;;;;6210109;28;20212;-66
2022/07/13 15:27:06;;;;;;;1.80;0.93;;;31.30;30.80;;;;;;6208815;28;20216;-67
2022/07/13 15:30:10;;;;;;;2.28;1.00;;;31.30;31.00;;;;;;6242034;28;20239;-66
2022/07/13 15:33:13;;;;;;;1.13;1.00;;;31.40;30.00;;;;;;6250938;28;20234;-66
2022/07/13 15:36:18;;;;;;;1.02;0.93;;;31.40;30.50;;;;;;6232293;28;20347;-66
2022/07/13 15:39:21;;;;;;;1.30;1.20;;;31.40;31.40;;;;;;6225364;28;20243;-66
2022/07/13 15:42:24;;;;;;;2.25;0.90;;;31.40;30.50;;;;;;6225619;28;20242;-66
2022/07/13 15:45:27;;;;;;;1.95;1.20;;;31.40;31.00;;;;;;6226043;28;20367;-67
2022/07/13 15:48:31;;;;;;;1.80;0.82;;;31.50;30.30;;;;;;6226023;28;20488;-67
2022/07/13 15:51:35;;;;;;;1.33;1.08;;;31.60;30.40;;;;;;6225720;28;20307;-67
2022/07/13 15:54:39;;;;;;;1.20;1.10;;;31.60;30.50;;;;;;6203740;28;20312;-66
2022/07/13 15:57:42;;;;;;;2.55;0.85;;;31.70;30.30;;;;;;6201289;28;20983;-66
2022/07/13 16:00:52;;;;;;;1.70;0.80;;;31.60;29.40;;;;;;6201113;28;20247;-67
2022/07/13 16:03:55;;;;;;;0.90;0.80;;;31.60;29.20;;;;;;6201008;28;20571;-66
2022/07/13 16:07:00;;;;;;;1.08;0.93;;;31.60;29.90;;;;;;6201632;28;20228;-68
2022/07/13 16:10:03;;;;;;;1.20;1.10;;;31.60;29.70;;;;;;6201999;28;20695;-65
2022/07/13 16:13:06;;;;;;;1.40;0.85;;;31.60;29.70;;;;;;6201193;28;20232;-67